createdAt,value
2023-03-29T00:01:58.206Z,3.78
2023-03-29T00:04:24.577Z,3.91
2023-03-29T00:06:50.911Z,4.09
2023-03-29T00:09:17.217Z,4.28
2023-03-29T00:11:43.534Z,4.83
2023-03-29T00:14:09.861Z,5.46
2023-03-29T00:16:36.205Z,6.09
2023-03-29T00:19:02.525Z,5.45
2023-03-29T00:21:28.834Z,5.28
2023-03-29T00:23:55.138Z,5.37
2023-03-29T00:26:21.457Z,4.45
2023-03-29T00:28:47.786Z,3.41
2023-03-29T00:31:14.167Z,3.73
2023-03-29T00:33:40.506Z,3.03
2023-03-29T00:36:07.039Z,3.28
2023-03-29T00:38:33.463Z,3.31
2023-03-29T00:40:59.942Z,3.38
2023-03-29T00:43:26.382Z,3.65
2023-03-29T00:45:52.690Z,3.74
2023-03-29T00:48:19.038Z,3.54
2023-03-29T00:50:45.397Z,3.29
2023-03-29T00:53:11.736Z,3.29
2023-03-29T00:55:38.054Z,3.57
2023-03-29T00:58:04.383Z,4.50
2023-03-29T01:00:30.734Z,4.96
2023-03-29T01:02:57.184Z,5.05
2023-03-29T01:05:23.578Z,5.74
2023-03-29T01:07:49.903Z,5.89
2023-03-29T01:10:16.246Z,5.23
2023-03-29T01:12:42.591Z,4.71
2023-03-29T01:15:08.917Z,4.23
2023-03-29T01:17:35.282Z,3.89
2023-03-29T01:20:01.647Z,3.75
2023-03-29T01:22:27.978Z,3.51
2023-03-29T01:24:54.299Z,3.14
2023-03-29T01:27:20.607Z,3.16
2023-03-29T01:29:46.917Z,3.57
2023-03-29T01:32:13.228Z,3.34
2023-03-29T01:34:39.548Z,3.24
2023-03-29T01:37:05.865Z,2.96
2023-03-29T01:39:32.174Z,3.21
2023-03-29T01:41:58.478Z,2.94
2023-03-29T01:44:24.788Z,3.14
2023-03-29T01:46:52.213Z,3.26
2023-03-29T01:49:18.608Z,3.48
2023-03-29T01:51:44.943Z,3.51
2023-03-29T01:54:11.269Z,3.53
2023-03-29T01:56:37.613Z,3.33
2023-03-29T01:59:03.990Z,3.36
2023-03-29T02:01:30.353Z,3.44
2023-03-29T02:03:56.683Z,3.58
2023-03-29T02:06:22.986Z,3.72
2023-03-29T02:08:49.294Z,3.55
2023-03-29T02:11:15.645Z,3.29
2023-03-29T02:13:41.971Z,3.51
2023-03-29T02:16:08.316Z,3.13
2023-03-29T02:18:34.671Z,3.20
2023-03-29T02:21:01.131Z,3.26
2023-03-29T02:23:27.617Z,3.23
2023-03-29T02:25:53.972Z,3.46
2023-03-29T02:28:20.289Z,3.91
2023-03-29T02:30:46.739Z,3.59
2023-03-29T02:33:13.086Z,3.66
2023-03-29T02:35:39.423Z,3.63
2023-03-29T02:38:05.768Z,3.49
2023-03-29T02:40:32.117Z,3.25
2023-03-29T02:42:58.438Z,3.53
2023-03-29T02:45:24.761Z,3.19
2023-03-29T02:47:51.105Z,3.19
2023-03-29T02:50:17.438Z,3.18
2023-03-29T02:52:43.787Z,2.55
2023-03-29T02:55:10.107Z,2.54
2023-03-29T02:57:36.448Z,2.30
2023-03-29T03:00:02.768Z,2.42
2023-03-29T03:02:29.119Z,2.35
2023-03-29T03:04:55.459Z,2.11
2023-03-29T03:07:21.791Z,2.28
2023-03-29T03:09:48.112Z,2.47
2023-03-29T03:12:14.441Z,2.42
2023-03-29T03:14:40.756Z,2.32
2023-03-29T03:17:07.088Z,2.40
2023-03-29T03:19:33.422Z,2.55
2023-03-29T03:21:59.774Z,2.39
2023-03-29T03:24:26.073Z,2.22
2023-03-29T03:26:52.381Z,2.09
2023-03-29T03:29:18.719Z,2.11
2023-03-29T03:31:45.096Z,1.93
2023-03-29T03:34:11.724Z,2.18
2023-03-29T03:36:38.080Z,2.08
2023-03-29T03:39:04.409Z,2.23
2023-03-29T03:41:30.740Z,1.99
2023-03-29T03:43:57.050Z,1.92
2023-03-29T03:46:23.448Z,2.09
2023-03-29T03:48:49.843Z,2.11
2023-03-29T03:51:16.188Z,2.34
2023-03-29T03:53:42.501Z,2.09
2023-03-29T03:56:08.888Z,1.90
2023-03-29T03:58:35.276Z,2.05
2023-03-29T04:01:01.794Z,1.95
2023-03-29T04:03:28.349Z,1.91
2023-03-29T04:05:54.736Z,1.86
2023-03-29T04:08:21.038Z,1.92
2023-03-29T04:10:47.367Z,1.74
2023-03-29T04:13:13.937Z,1.84
2023-03-29T04:15:40.301Z,1.74
2023-03-29T04:18:06.715Z,1.76
2023-03-29T04:20:33.105Z,1.93
2023-03-29T04:22:59.519Z,1.84
2023-03-29T04:25:25.848Z,1.91
2023-03-29T04:27:52.161Z,1.84
2023-03-29T04:30:18.516Z,1.82
2023-03-29T04:32:44.924Z,1.88
2023-03-29T04:35:11.249Z,2.03
2023-03-29T04:37:37.565Z,1.91
2023-03-29T04:40:03.904Z,1.88
2023-03-29T04:42:30.227Z,1.81
2023-03-29T04:44:56.549Z,1.76
2023-03-29T04:47:22.897Z,1.77
2023-03-29T04:49:49.238Z,1.83
2023-03-29T04:52:15.562Z,1.78
2023-03-29T04:54:41.876Z,1.91
2023-03-29T04:57:08.295Z,1.92
2023-03-29T04:59:34.649Z,1.72
2023-03-29T05:02:01.001Z,1.80
2023-03-29T05:04:27.385Z,1.74
2023-03-29T05:06:53.708Z,1.57
2023-03-29T05:09:20.031Z,1.79
2023-03-29T05:11:46.337Z,1.76
2023-03-29T05:14:12.661Z,1.66
2023-03-29T05:16:39.097Z,1.62
2023-03-29T05:19:05.506Z,1.64
2023-03-29T05:21:31.825Z,1.57
2023-03-29T05:23:58.168Z,1.57
2023-03-29T05:26:24.482Z,1.75
2023-03-29T05:28:50.803Z,1.80
2023-03-29T05:31:17.351Z,1.73
2023-03-29T05:33:43.707Z,1.60
2023-03-29T05:36:10.048Z,1.78
2023-03-29T05:38:36.405Z,1.77
2023-03-29T05:41:02.839Z,1.65
2023-03-29T05:43:29.314Z,1.78
2023-03-29T05:45:55.744Z,1.70
2023-03-29T05:48:22.084Z,1.71
2023-03-29T05:50:48.412Z,1.61
2023-03-29T05:53:14.722Z,1.78
2023-03-29T05:55:41.022Z,1.72
2023-03-29T05:58:07.345Z,1.67
2023-03-29T06:00:33.678Z,1.55
2023-03-29T06:03:13.311Z,1.85
2023-03-29T06:05:44.175Z,1.49
2023-03-29T06:08:10.483Z,1.79
2023-03-29T06:10:36.809Z,1.64
2023-03-29T06:13:03.161Z,1.52
2023-03-29T06:15:29.467Z,1.76
2023-03-29T06:17:55.793Z,1.81
2023-03-29T06:20:22.167Z,1.69
2023-03-29T06:22:48.490Z,1.88
2023-03-29T06:25:14.806Z,1.73
2023-03-29T06:27:41.145Z,1.72
2023-03-29T06:30:07.484Z,1.64
2023-03-29T06:32:33.865Z,1.73
2023-03-29T06:35:00.220Z,1.68
2023-03-29T06:37:26.550Z,1.57
2023-03-29T06:39:53.370Z,1.65
2023-03-29T06:42:21.559Z,1.56
2023-03-29T06:44:48.265Z,1.75
2023-03-29T06:47:14.586Z,2.17
2023-03-29T06:49:40.924Z,1.59
2023-03-29T06:52:07.262Z,1.67
2023-03-29T06:54:33.581Z,1.67
2023-03-29T06:56:59.964Z,1.69
2023-03-29T06:59:26.356Z,1.74
2023-03-29T07:01:52.722Z,1.61
2023-03-29T07:04:19.096Z,1.76
2023-03-29T07:06:45.526Z,1.65
2023-03-29T07:09:11.855Z,1.59
2023-03-29T07:11:38.178Z,1.75
2023-03-29T07:14:04.488Z,1.60
2023-03-29T07:16:30.838Z,1.72
2023-03-29T07:18:57.176Z,1.50
2023-03-29T07:21:23.509Z,1.41
2023-03-29T07:23:49.813Z,1.67
2023-03-29T07:26:16.115Z,1.51
2023-03-29T07:28:55.165Z,1.56
2023-03-29T07:31:21.470Z,1.45
2023-03-29T07:33:47.863Z,1.62
2023-03-29T07:36:14.284Z,1.49
2023-03-29T07:38:40.626Z,1.43
2023-03-29T07:41:06.988Z,1.56
2023-03-29T07:43:33.419Z,1.55
2023-03-29T07:45:59.760Z,1.55
2023-03-29T07:48:26.098Z,1.41
2023-03-29T07:50:52.405Z,1.68
2023-03-29T07:53:18.734Z,1.67
2023-03-29T07:55:47.007Z,1.64
2023-03-29T07:58:13.808Z,1.45
2023-03-29T08:00:40.188Z,1.48
2023-03-29T08:03:06.618Z,1.34
2023-03-29T08:05:40.640Z,1.35
2023-03-29T08:08:08.180Z,1.68
2023-03-29T08:10:34.537Z,1.52
2023-03-29T08:13:00.884Z,1.48
2023-03-29T08:15:27.237Z,1.57
2023-03-29T08:17:53.644Z,1.51
2023-03-29T08:20:20.042Z,1.42
2023-03-29T08:22:46.363Z,1.48
2023-03-29T08:25:13.866Z,1.68
2023-03-29T08:27:40.215Z,1.43
2023-03-29T08:30:06.571Z,1.51
2023-03-29T08:32:32.944Z,1.59
2023-03-29T08:34:59.265Z,1.48
2023-03-29T08:37:25.589Z,1.33
2023-03-29T08:39:51.927Z,1.43
2023-03-29T08:42:18.233Z,1.34
2023-03-29T08:44:44.631Z,1.33
2023-03-29T08:47:10.934Z,1.21
2023-03-29T08:49:37.261Z,1.33
2023-03-29T08:52:03.601Z,1.32
2023-03-29T08:54:29.922Z,1.38
2023-03-29T08:56:56.285Z,1.35
2023-03-29T08:59:22.610Z,1.42
2023-03-29T09:01:48.969Z,1.32
2023-03-29T09:04:17.292Z,1.33
2023-03-29T09:06:43.619Z,1.41
2023-03-29T09:09:09.943Z,1.31
2023-03-29T09:11:36.278Z,1.46
2023-03-29T09:14:02.595Z,1.45
2023-03-29T09:16:28.960Z,1.48
2023-03-29T09:18:55.309Z,1.56
2023-03-29T09:21:21.621Z,1.39
2023-03-29T09:23:47.955Z,1.36
2023-03-29T09:26:14.297Z,1.37
2023-03-29T09:28:40.621Z,1.51
2023-03-29T09:31:06.993Z,1.53
2023-03-29T09:33:33.327Z,1.62
2023-03-29T09:35:59.704Z,1.34
2023-03-29T09:38:26.021Z,1.43
2023-03-29T09:40:52.345Z,1.51
2023-03-29T09:43:18.660Z,1.55
2023-03-29T09:45:45.018Z,1.41
2023-03-29T09:48:11.538Z,1.51
2023-03-29T09:50:37.954Z,1.57
2023-03-29T09:53:04.271Z,1.42
2023-03-29T09:55:30.610Z,1.46
2023-03-29T09:57:57.108Z,1.59
2023-03-29T10:00:23.441Z,1.45
2023-03-29T10:02:49.816Z,1.48
2023-03-29T10:05:16.155Z,1.66
2023-03-29T10:07:42.486Z,1.46
2023-03-29T10:10:08.805Z,1.55
2023-03-29T10:12:35.152Z,1.58
2023-03-29T10:15:01.473Z,1.59
2023-03-29T10:17:27.821Z,1.64
2023-03-29T10:19:54.230Z,1.56
2023-03-29T10:22:20.574Z,1.65
2023-03-29T10:24:46.902Z,1.58
2023-03-29T10:27:13.232Z,1.69
2023-03-29T10:29:39.548Z,1.47
2023-03-29T10:32:05.905Z,1.74
2023-03-29T10:34:32.261Z,1.62
2023-03-29T10:36:58.607Z,1.50
2023-03-29T10:39:24.932Z,1.60
2023-03-29T10:41:51.272Z,1.54
2023-03-29T10:44:17.577Z,1.66
2023-03-29T10:46:43.986Z,1.71
2023-03-29T10:49:10.459Z,1.63
2023-03-29T10:51:36.791Z,1.61
2023-03-29T10:54:03.156Z,1.54
2023-03-29T10:56:29.489Z,1.51
2023-03-29T10:58:55.824Z,1.59
2023-03-29T11:01:22.158Z,1.56
2023-03-29T11:03:48.608Z,1.53
2023-03-29T11:06:14.971Z,1.57
2023-03-29T11:08:41.275Z,1.54
2023-03-29T11:11:07.624Z,1.47
2023-03-29T11:13:33.957Z,1.56
2023-03-29T11:16:00.322Z,1.56
2023-03-29T11:18:26.650Z,1.53
2023-03-29T11:20:52.971Z,1.59
2023-03-29T11:23:19.301Z,1.80
2023-03-29T11:25:45.628Z,1.61
2023-03-29T11:28:11.942Z,1.61
2023-03-29T11:30:38.250Z,1.54
2023-03-29T11:33:04.595Z,1.55
2023-03-29T11:35:30.975Z,1.59
2023-03-29T11:37:57.344Z,1.75
2023-03-29T11:40:23.704Z,1.54
2023-03-29T11:42:50.010Z,1.51
2023-03-29T11:45:16.353Z,1.48
2023-03-29T11:47:42.838Z,1.35
2023-03-29T11:50:09.203Z,1.55
2023-03-29T11:52:35.525Z,1.58
2023-03-29T11:55:01.826Z,1.77
2023-03-29T11:57:28.227Z,1.75
2023-03-29T11:59:54.674Z,1.43
2023-03-29T12:02:21.160Z,1.60
2023-03-29T12:04:47.555Z,1.83
2023-03-29T12:07:13.867Z,1.48
2023-03-29T12:09:40.198Z,1.55
2023-03-29T12:12:06.521Z,1.70
2023-03-29T12:14:32.826Z,1.94
2023-03-29T12:16:59.190Z,1.73
2023-03-29T12:19:25.623Z,1.86
2023-03-29T12:21:51.953Z,1.69
2023-03-29T12:24:18.266Z,1.77
2023-03-29T12:26:44.619Z,1.67
2023-03-29T12:29:10.963Z,1.83
2023-03-29T12:31:37.339Z,1.90
2023-03-29T12:34:03.675Z,1.95
2023-03-29T12:36:30.001Z,1.67
2023-03-29T12:38:56.334Z,1.66
2023-03-29T12:41:22.659Z,1.82
2023-03-29T12:43:48.987Z,1.83
2023-03-29T12:46:15.413Z,1.68
2023-03-29T12:48:41.767Z,1.87
2023-03-29T12:51:08.111Z,1.95
2023-03-29T12:53:34.458Z,2.02
2023-03-29T12:56:01.024Z,1.85
2023-03-29T12:58:27.510Z,1.77
2023-03-29T13:00:53.848Z,1.86
2023-03-29T13:03:20.376Z,1.87
2023-03-29T13:05:46.926Z,1.75
2023-03-29T13:08:13.446Z,1.87
2023-03-29T13:10:39.777Z,1.82
2023-03-29T13:13:06.099Z,1.73
2023-03-29T13:15:32.434Z,1.73
2023-03-29T13:17:58.848Z,1.78
2023-03-29T13:20:25.204Z,1.69
2023-03-29T13:22:51.514Z,1.74
2023-03-29T13:25:17.834Z,1.66
2023-03-29T13:27:44.180Z,1.62
2023-03-29T13:30:10.522Z,1.74
2023-03-29T13:32:36.860Z,1.88
2023-03-29T13:35:03.221Z,1.72
2023-03-29T13:37:29.553Z,1.67
2023-03-29T13:39:55.857Z,1.69
2023-03-29T13:42:22.172Z,1.78
2023-03-29T13:44:48.499Z,1.62
2023-03-29T13:47:14.830Z,1.91
2023-03-29T13:49:41.169Z,1.90
2023-03-29T13:52:07.489Z,1.71
2023-03-29T13:54:33.806Z,1.68
2023-03-29T13:57:00.157Z,1.67
2023-03-29T13:59:26.528Z,1.75
2023-03-29T14:01:52.894Z,1.56
2023-03-29T14:04:19.234Z,1.68
2023-03-29T14:06:45.555Z,1.67
2023-03-29T14:09:11.867Z,2.13
2023-03-29T14:11:38.204Z,1.80
2023-03-29T14:14:04.523Z,1.86
2023-03-29T14:16:30.868Z,1.86
2023-03-29T14:18:57.222Z,1.78
2023-03-29T14:21:23.563Z,1.70
2023-03-29T14:23:49.894Z,1.78
2023-03-29T14:26:16.243Z,1.73
2023-03-29T14:28:42.567Z,1.73
2023-03-29T14:31:08.915Z,1.79
2023-03-29T14:33:35.271Z,1.56
2023-03-29T14:36:01.888Z,1.75
2023-03-29T14:38:28.449Z,1.93
2023-03-29T14:40:54.769Z,1.92
2023-03-29T14:43:21.098Z,2.11
2023-03-29T14:45:47.492Z,1.88
2023-03-29T14:48:13.861Z,1.77
2023-03-29T14:50:40.450Z,1.77
2023-03-29T14:53:06.821Z,1.91
2023-03-29T14:55:33.156Z,1.68
2023-03-29T14:57:59.493Z,1.71
2023-03-29T15:00:25.804Z,1.87
2023-03-29T15:02:52.233Z,1.81
2023-03-29T15:05:18.610Z,1.80
2023-03-29T15:07:44.939Z,1.99
2023-03-29T15:10:11.272Z,1.96
2023-03-29T15:12:37.583Z,2.04
2023-03-29T15:15:03.889Z,1.88
2023-03-29T15:17:42.624Z,1.83
2023-03-29T15:20:16.386Z,1.88
2023-03-29T15:22:42.722Z,1.93
2023-03-29T15:25:09.046Z,2.02
2023-03-29T15:27:35.377Z,1.83
2023-03-29T15:30:01.701Z,2.09
2023-03-29T15:32:28.031Z,1.94
2023-03-29T15:34:54.371Z,1.90
2023-03-29T15:37:20.746Z,2.06
2023-03-29T15:39:47.088Z,2.14
2023-03-29T15:42:13.397Z,2.18
2023-03-29T15:44:39.731Z,2.01
2023-03-29T15:47:06.086Z,1.96
2023-03-29T15:49:32.413Z,2.03
2023-03-29T15:51:58.744Z,2.03
2023-03-29T15:54:25.070Z,2.13
2023-03-29T15:56:51.455Z,2.08
2023-03-29T15:59:17.894Z,2.17
2023-03-29T16:01:44.240Z,1.93
2023-03-29T16:04:10.597Z,2.14
2023-03-29T16:06:36.980Z,2.13
2023-03-29T16:09:03.299Z,2.16
2023-03-29T16:11:29.655Z,2.01
2023-03-29T16:13:56.026Z,2.26
2023-03-29T16:16:22.437Z,2.23
2023-03-29T16:18:48.826Z,2.20
2023-03-29T16:21:15.143Z,2.23
2023-03-29T16:23:41.467Z,2.46
2023-03-29T16:26:07.779Z,2.22
2023-03-29T16:28:34.086Z,3.16
2023-03-29T16:31:00.394Z,3.08
2023-03-29T16:33:26.717Z,3.39
2023-03-29T16:35:53.151Z,3.07
2023-03-29T16:38:19.489Z,2.78
2023-03-29T16:40:45.819Z,2.50
2023-03-29T16:43:12.147Z,2.37
2023-03-29T16:45:38.512Z,2.52
2023-03-29T16:48:04.871Z,2.18
2023-03-29T16:50:31.271Z,2.80
2023-03-29T16:52:57.616Z,3.00
2023-03-29T16:55:23.936Z,2.92
2023-03-29T16:57:50.273Z,2.96
2023-03-29T17:00:16.579Z,2.96
2023-03-29T17:02:43.077Z,3.03
2023-03-29T17:05:09.476Z,3.15
2023-03-29T17:07:35.944Z,2.93
2023-03-29T17:10:02.290Z,2.46
2023-03-29T17:12:28.631Z,2.42
2023-03-29T17:14:54.951Z,2.67
2023-03-29T17:17:21.293Z,3.15
2023-03-29T17:19:47.652Z,3.18
2023-03-29T17:22:13.981Z,3.65
2023-03-29T17:24:40.299Z,4.22
2023-03-29T17:27:06.630Z,3.55
2023-03-29T17:29:32.982Z,2.93
2023-03-29T17:31:59.321Z,3.24
2023-03-29T17:34:25.639Z,3.23
2023-03-29T17:36:51.980Z,3.02
2023-03-29T17:39:18.294Z,2.90
2023-03-29T17:41:44.625Z,3.04
2023-03-29T17:44:10.962Z,2.89
2023-03-29T17:46:37.420Z,2.72
2023-03-29T17:49:03.788Z,2.26
2023-03-29T17:51:30.095Z,2.43
2023-03-29T17:53:56.418Z,2.34
2023-03-29T17:56:22.786Z,2.55
2023-03-29T17:58:49.113Z,3.46
2023-03-29T18:01:15.471Z,3.44
2023-03-29T18:03:41.837Z,3.23
2023-03-29T18:06:08.152Z,4.01
2023-03-29T18:08:34.474Z,5.41
2023-03-29T18:11:00.825Z,6.07
2023-03-29T18:13:27.152Z,4.82
2023-03-29T18:15:53.477Z,4.46
2023-03-29T18:18:19.787Z,4.20
2023-03-29T18:20:46.124Z,4.06
2023-03-29T18:23:12.467Z,3.65
2023-03-29T18:25:39.040Z,3.75
2023-03-29T18:28:05.373Z,3.71
2023-03-29T18:30:31.690Z,3.68
2023-03-29T18:32:58.051Z,3.87
2023-03-29T18:35:24.410Z,4.07
2023-03-29T18:37:50.730Z,4.81
2023-03-29T18:40:17.041Z,4.67
2023-03-29T18:42:43.354Z,5.75
2023-03-29T18:45:09.672Z,4.78
2023-03-29T18:47:36.079Z,4.49
2023-03-29T18:50:02.474Z,4.66
2023-03-29T18:52:28.821Z,4.41
2023-03-29T18:54:55.158Z,4.19
2023-03-29T18:57:21.548Z,3.93
2023-03-29T18:59:47.894Z,3.82
2023-03-29T19:02:14.232Z,3.66
2023-03-29T19:04:40.561Z,3.57
2023-03-29T19:07:06.895Z,3.72
2023-03-29T19:09:33.221Z,3.66
2023-03-29T19:11:59.555Z,3.55
2023-03-29T19:14:25.882Z,3.53
2023-03-29T19:16:52.205Z,3.70
2023-03-29T19:19:18.510Z,3.89
2023-03-29T19:21:44.844Z,3.70
2023-03-29T19:24:11.173Z,3.96
2023-03-29T19:26:37.502Z,3.62
2023-03-29T19:29:03.833Z,3.53
2023-03-29T19:31:30.299Z,3.93
2023-03-29T19:33:56.696Z,4.09
2023-03-29T19:36:23.037Z,9.64
2023-03-29T19:38:49.346Z,6.50
2023-03-29T19:41:15.674Z,4.18
2023-03-29T19:43:41.986Z,3.94
2023-03-29T19:46:08.437Z,3.49
2023-03-29T19:48:34.882Z,4.08
2023-03-29T19:51:01.252Z,4.18
2023-03-29T19:53:27.566Z,4.04
2023-03-29T19:55:53.890Z,3.92
2023-03-29T19:58:20.227Z,3.83
2023-03-29T20:00:46.547Z,3.55
2023-03-29T20:03:12.922Z,3.72
2023-03-29T20:05:39.266Z,3.48
2023-03-29T20:08:05.578Z,3.53
2023-03-29T20:10:31.901Z,3.55
2023-03-29T20:12:58.225Z,3.58
2023-03-29T20:15:24.558Z,3.59
2023-03-29T20:17:50.911Z,3.66
2023-03-29T20:20:17.249Z,3.63
2023-03-29T20:22:43.564Z,3.13
2023-03-29T20:25:09.953Z,3.10
2023-03-29T20:27:36.292Z,3.13
2023-03-29T20:30:02.617Z,3.05
2023-03-29T20:32:28.947Z,3.13
2023-03-29T20:34:55.307Z,3.31
2023-03-29T20:37:21.622Z,3.21
2023-03-29T20:39:47.969Z,3.14
2023-03-29T20:42:14.307Z,3.20
2023-03-29T20:44:40.638Z,3.08
2023-03-29T20:47:06.961Z,2.72
2023-03-29T20:49:33.295Z,2.79
2023-03-29T20:51:59.630Z,3.14
2023-03-29T20:54:25.937Z,2.92
2023-03-29T20:56:52.301Z,2.70
2023-03-29T20:59:18.632Z,2.79
2023-03-29T21:01:45.022Z,2.79
2023-03-29T21:04:11.404Z,2.84
2023-03-29T21:06:37.702Z,2.60
2023-03-29T21:09:04.024Z,2.79
2023-03-29T21:11:30.359Z,2.62
2023-03-29T21:13:56.696Z,2.49
2023-03-29T21:16:23.145Z,2.56
2023-03-29T21:18:49.551Z,2.53
2023-03-29T21:21:15.879Z,2.60
2023-03-29T21:23:42.195Z,2.32
2023-03-29T21:26:08.521Z,2.62
2023-03-29T21:28:34.855Z,2.65
2023-03-29T21:31:01.396Z,2.70
2023-03-29T21:33:27.883Z,2.79
2023-03-29T21:35:54.228Z,2.64
2023-03-29T21:38:20.594Z,2.67
2023-03-29T21:40:46.922Z,2.50
2023-03-29T21:43:13.231Z,2.62
2023-03-29T21:45:39.533Z,2.62
2023-03-29T21:48:05.879Z,2.77
2023-03-29T21:50:33.797Z,2.65
2023-03-29T21:53:00.343Z,2.75
2023-03-29T21:55:26.650Z,3.04
2023-03-29T21:57:52.965Z,2.88
2023-03-29T22:00:19.293Z,2.86
2023-03-29T22:02:45.758Z,2.95
2023-03-29T22:05:12.248Z,2.81
2023-03-29T22:07:38.664Z,2.74
2023-03-29T22:10:05.082Z,2.78
2023-03-29T22:12:31.554Z,3.01
2023-03-29T22:14:57.888Z,3.01
2023-03-29T22:17:24.241Z,3.07
2023-03-29T22:19:50.605Z,3.05
2023-03-29T22:22:16.917Z,3.05
2023-03-29T22:24:43.252Z,3.15
2023-03-29T22:27:09.555Z,3.01
2023-03-29T22:29:35.858Z,3.09
2023-03-29T22:32:02.237Z,3.12
2023-03-29T22:34:28.641Z,3.15
2023-03-29T22:36:54.960Z,2.98
2023-03-29T22:39:21.299Z,3.08
2023-03-29T22:41:47.610Z,3.11
2023-03-29T22:44:13.935Z,3.23
2023-03-29T22:46:40.248Z,2.91
2023-03-29T22:49:06.574Z,3.13
2023-03-29T22:51:32.905Z,2.95
2023-03-29T22:53:59.249Z,2.86
2023-03-29T22:56:25.686Z,3.09
2023-03-29T22:58:52.025Z,3.09
2023-03-29T23:01:18.352Z,2.91
2023-03-29T23:03:44.678Z,3.13
2023-03-29T23:06:10.990Z,3.04
2023-03-29T23:08:37.297Z,3.07
2023-03-29T23:11:03.731Z,2.89
2023-03-29T23:13:30.228Z,3.29
2023-03-29T23:15:56.589Z,3.15
2023-03-29T23:18:22.962Z,2.89
2023-03-29T23:20:49.269Z,2.43
2023-03-29T23:23:15.577Z,2.73
2023-03-29T23:25:41.896Z,3.07
2023-03-29T23:28:08.224Z,3.17
2023-03-29T23:30:34.587Z,3.01
2023-03-29T23:33:00.956Z,3.04
2023-03-29T23:35:27.387Z,3.42
2023-03-29T23:37:53.742Z,3.10
2023-03-29T23:40:20.074Z,3.28
2023-03-29T23:42:46.399Z,3.02
2023-03-29T23:45:12.743Z,3.17
2023-03-29T23:47:39.087Z,2.99
2023-03-29T23:50:05.448Z,3.18
2023-03-29T23:52:31.760Z,3.19
2023-03-29T23:54:58.092Z,3.33
2023-03-29T23:57:24.461Z,2.96
2023-03-29T23:59:50.806Z,3.09
